Time;durP1;ratioP1;P1;durP2;ratioP2;P2;SDS_P1;SDS_P2;PMS_P1;PMS_P2;Temp;Humidity;BMP_temperature;BMP_pressure;BME280_temperature;BME280_humidity;BME280_pressure;Samples;Min_cycle;Max_cycle;Signal;HPM_P1;HPM_P2
2021/04/11 00:00:32;;;;;;;13.88;4.72;;;;;;;7.50;100.00;100476.63;4925737;29;20511;-75
2021/04/11 00:02:58;;;;;;;11.05;4.45;;;;;;;7.48;100.00;100471.63;4946778;28;20140;-76
2021/04/11 00:05:28;;;;;;;17.85;5.60;;;;;;;7.51;100.00;100465.56;4942873;28;20043;-75
2021/04/11 00:07:54;;;;;;;14.18;5.30;;;;;;;7.69;100.00;100450.00;4942343;28;20031;-74
2021/04/11 00:10:23;;;;;;;13.57;4.93;;;;;;;7.72;100.00;100452.03;4940314;28;20035;-74
2021/04/11 00:12:49;;;;;;;15.43;5.47;;;;;;;7.65;100.00;100463.31;4943010;28;20038;-76
2021/04/11 00:15:15;;;;;;;15.18;5.72;;;;;;;7.63;100.00;100452.16;4940139;28;20031;-76
2021/04/11 00:17:41;;;;;;;14.95;6.32;;;;;;;7.64;100.00;100450.25;4942715;28;20427;-75
2021/04/11 00:20:07;;;;;;;14.57;5.93;;;;;;;7.63;100.00;100440.66;4949462;28;20509;-75
2021/04/11 00:22:33;;;;;;;18.13;6.47;;;;;;;7.43;100.00;100428.22;4953746;28;20101;-75
2021/04/11 00:24:59;;;;;;;12.40;6.15;;;;;;;7.69;100.00;100424.00;4953474;28;20555;-75
2021/04/11 00:27:24;;;;;;;14.82;6.60;;;;;;;7.85;100.00;100426.72;4949775;28;20059;-75
2021/04/11 00:29:50;;;;;;;14.10;6.68;;;;;;;7.50;100.00;100409.66;4936762;28;20485;-75
2021/04/11 00:32:15;;;;;;;13.30;7.05;;;;;;;7.52;100.00;100410.09;4946169;28;20035;-75
2021/04/11 00:34:40;;;;;;;21.52;7.53;;;;;;;7.56;100.00;100397.59;4957422;28;20023;-76
2021/04/11 00:37:07;;;;;;;19.35;7.95;;;;;;;7.63;100.00;100409.28;4954753;28;20114;-75
2021/04/11 00:39:32;;;;;;;20.58;8.90;;;;;;;7.30;100.00;100400.69;4953434;28;20024;-76
2021/04/11 00:42:05;;;;;;;20.52;8.80;;;;;;;7.49;100.00;100392.03;4952419;28;20042;-75
2021/04/11 00:44:32;;;;;;;26.00;9.88;;;;;;;7.62;100.00;100386.31;4954296;28;20122;-76
2021/04/11 00:46:59;;;;;;;19.90;9.40;;;;;;;7.42;100.00;100370.41;4953735;28;20459;-75
2021/04/11 00:49:33;;;;;;;21.60;10.57;;;;;;;7.51;100.00;100369.13;4951401;28;20110;-76
2021/04/11 00:52:00;;;;;;;24.05;10.40;;;;;;;7.53;100.00;100363.47;4943892;28;20507;-75
2021/04/11 00:54:26;;;;;;;24.27;10.18;;;;;;;7.62;100.00;100364.09;4951358;28;20034;-75
2021/04/11 00:56:52;;;;;;;28.48;11.38;;;;;;;7.90;100.00;100362.13;4952847;28;20027;-76
2021/04/11 00:59:19;;;;;;;28.92;12.15;;;;;;;7.38;100.00;100356.91;4934527;28;20035;-76
2021/04/11 01:01:46;;;;;;;27.70;12.50;;;;;;;7.77;100.00;100344.56;4953586;28;20035;-76
2021/04/11 01:04:14;;;;;;;29.27;13.27;;;;;;;7.85;100.00;100346.31;4935920;29;20499;-76
2021/04/11 01:06:48;;;;;;;31.33;13.75;;;;;;;7.65;100.00;100320.50;4951770;28;20038;-76
2021/04/11 01:09:22;;;;;;;30.48;13.50;;;;;;;7.90;100.00;100325.41;4935583;29;20031;-76
2021/04/11 01:11:49;;;;;;;33.00;14.60;;;;;;;7.64;100.00;100321.66;4952998;28;20110;-76
2021/04/11 01:14:15;;;;;;;36.60;15.65;;;;;;;7.91;100.00;100323.50;4953257;28;20038;-75
2021/04/11 01:16:43;;;;;;;34.78;15.25;;;;;;;7.60;100.00;100316.19;4952085;28;20050;-76
2021/04/11 01:19:12;;;;;;;34.50;15.43;;;;;;;7.90;100.00;100305.84;4947493;28;20117;-76
2021/04/11 01:22:15;;;;;;;39.13;16.83;;;;;;;8.17;100.00;100294.25;4953212;28;20496;-76
2021/04/11 01:24:51;;;;;;;33.13;15.05;;;;;;;8.17;100.00;100295.03;4935786;29;20035;-76
2021/04/11 01:27:21;;;;;;;36.88;16.50;;;;;;;8.05;100.00;100284.41;4917387;29;20034;-75
2021/04/11 01:29:48;;;;;;;36.33;15.63;;;;;;;8.06;100.00;100277.16;4935941;29;20031;-76
2021/04/11 01:32:16;;;;;;;34.92;16.05;;;;;;;8.06;100.00;100271.78;4935546;28;20087;-76
2021/04/11 01:34:44;;;;;;;40.13;16.60;;;;;;;8.31;100.00;100275.06;4928766;29;20114;-76
2021/04/11 01:37:14;;;;;;;34.55;16.38;;;;;;;8.25;100.00;100246.97;4937068;28;20114;-76
2021/04/11 01:39:42;;;;;;;39.83;16.33;;;;;;;8.04;100.00;100248.00;4928114;29;20035;-76
2021/04/11 01:42:09;;;;;;;37.80;17.38;;;;;;;7.98;100.00;100254.75;4952601;28;20023;-76
2021/04/11 01:44:39;;;;;;;33.85;16.45;;;;;;;8.10;100.00;100240.47;4935390;29;20035;-76
2021/04/11 01:47:07;;;;;;;39.28;16.45;;;;;;;8.03;100.00;100246.44;4950120;28;20055;-76
2021/04/11 01:49:39;;;;;;;35.58;16.30;;;;;;;8.00;100.00;100241.00;4931962;29;20036;-76
2021/04/11 01:52:13;;;;;;;41.42;16.65;;;;;;;8.06;100.00;100235.03;4945678;28;20039;-76
2021/04/11 01:54:40;;;;;;;40.67;17.50;;;;;;;8.16;100.00;100228.34;4933538;29;20031;-76
2021/04/11 01:57:17;;;;;;;35.42;16.00;;;;;;;7.84;100.00;100227.59;4950679;28;20031;-75
2021/04/11 01:59:42;;;;;;;38.30;17.33;;;;;;;8.04;100.00;100226.56;4948534;28;20039;-76
2021/04/11 02:02:12;;;;;;;34.63;15.93;;;;;;;7.89;100.00;100224.66;4902435;29;20025;-76
2021/04/11 02:04:37;;;;;;;41.65;16.38;;;;;;;8.06;100.00;100213.59;4949053;28;20348;-76
2021/04/11 02:07:06;;;;;;;37.70;17.50;;;;;;;8.26;100.00;100217.13;4934636;29;20126;-76
2021/04/11 02:09:38;;;;;;;40.28;18.50;;;;;;;8.30;100.00;100223.34;4934428;28;20066;-76
2021/04/11 02:12:30;;;;;;;42.50;17.95;;;;;;;8.03;100.00;100218.88;4949406;28;20043;-76
2021/04/11 02:15:13;;;;;;;41.22;17.60;;;;;;;8.02;100.00;100228.03;4950623;28;20059;-76
2021/04/11 02:17:38;;;;;;;44.10;18.90;;;;;;;7.83;100.00;100214.56;4935087;29;20523;-76
2021/04/11 02:20:10;;;;;;;44.33;19.27;;;;;;;7.77;100.00;100205.22;4952104;28;20038;-76
2021/04/11 02:22:41;;;;;;;42.50;18.48;;;;;;;8.02;100.00;100202.00;4930884;29;20102;-76
2021/04/11 02:25:13;;;;;;;42.30;19.05;;;;;;;8.00;100.00;100198.09;4951454;28;20075;-76
2021/04/11 02:27:40;;;;;;;43.15;19.55;;;;;;;8.25;100.00;100196.78;4934643;29;20481;-76
2021/04/11 02:30:09;;;;;;;47.08;19.05;;;;;;;8.40;100.00;100193.28;4963365;28;20066;-76
2021/04/11 02:32:34;;;;;;;42.88;20.08;;;;;;;8.28;100.00;100180.00;4919849;29;20039;-76
2021/04/11 02:35:02;;;;;;;43.25;18.75;;;;;;;8.08;100.00;100184.50;4933202;29;20071;-76
2021/04/11 02:37:33;;;;;;;41.20;18.52;;;;;;;8.35;100.00;100174.78;4930052;28;20043;-76
2021/04/11 02:40:00;;;;;;;50.90;20.95;;;;;;;8.15;100.00;100175.84;4936979;29;20031;-76
2021/04/11 02:42:34;;;;;;;47.40;20.67;;;;;;;8.28;100.00;100182.69;4945403;28;20044;-76
2021/04/11 02:45:11;;;;;;;46.25;21.15;;;;;;;7.92;100.00;100175.72;4954379;28;20113;-76
2021/04/11 02:47:42;;;;;;;47.58;21.67;;;;;;;8.09;100.00;100179.94;4943534;28;20114;-76
2021/04/11 02:50:12;;;;;;;48.65;21.67;;;;;;;8.17;100.00;100179.72;4938515;28;20086;-75
2021/04/11 02:52:48;;;;;;;54.58;24.20;;;;;;;8.42;100.00;100174.91;4955488;28;20031;-76
2021/04/11 02:55:17;;;;;;;50.75;22.92;;;;;;;8.21;100.00;100185.16;4931914;28;20063;-76
2021/04/11 02:57:47;;;;;;;57.28;22.52;;;;;;;8.45;100.00;100166.19;4950922;28;20473;-76
2021/04/11 03:00:18;;;;;;;52.83;23.38;;;;;;;8.39;100.00;100169.47;4955547;28;20042;-76
2021/04/11 03:02:46;;;;;;;52.28;22.83;;;;;;;8.45;100.00;100166.19;4938594;29;20031;-76
2021/04/11 03:05:15;;;;;;;56.92;23.88;;;;;;;8.47;100.00;100158.56;4931529;29;20059;-76
2021/04/11 03:07:46;;;;;;;52.78;23.38;;;;;;;8.36;100.00;100162.16;4939669;29;20031;-76
2021/04/11 03:10:28;;;;;;;51.47;23.70;;;;;;;8.59;100.00;100150.38;4938051;28;20468;-76
2021/04/11 03:12:56;;;;;;;56.08;24.90;;;;;;;8.38;100.00;100144.56;4933452;29;20538;-76
2021/04/11 03:15:23;;;;;;;57.35;24.58;;;;;;;8.52;100.00;100155.59;4936648;28;20073;-76
2021/04/11 03:17:53;;;;;;;58.95;25.40;;;;;;;8.56;100.00;100142.22;4945729;28;20072;-76
2021/04/11 03:20:27;;;;;;;54.50;24.42;;;;;;;8.65;100.00;100148.94;4938331;28;20488;-76
2021/04/11 03:22:58;;;;;;;54.95;24.27;;;;;;;8.49;100.00;100139.41;4931158;29;20036;-76
2021/04/11 03:25:27;;;;;;;56.38;24.80;;;;;;;8.57;100.00;100125.81;4939113;28;20488;-76
2021/04/11 03:28:19;;;;;;;54.47;24.92;;;;;;;8.64;100.00;100146.63;4936481;29;20415;-76
2021/04/11 03:31:06;;;;;;;50.53;22.83;;;;;;;8.54;100.00;100147.97;4936212;29;20065;-75
2021/04/11 03:33:41;;;;;;;54.05;24.60;;;;;;;8.76;100.00;100141.88;4932301;29;20404;-75
2021/04/11 03:36:14;;;;;;;56.35;23.80;;;;;;;8.49;100.00;100137.53;4943963;28;20491;-75
2021/04/11 03:38:42;;;;;;;57.58;25.45;;;;;;;8.59;100.00;100139.66;4961780;28;20502;-75
2021/04/11 03:41:09;;;;;;;62.92;26.08;;;;;;;8.39;100.00;100131.94;4946015;28;20456;-77
2021/04/11 03:43:47;;;;;;;58.25;26.33;;;;;;;8.56;100.00;100126.13;4951751;28;20070;-75
2021/04/11 03:46:26;;;;;;;54.42;26.00;;;;;;;8.44;100.00;100121.69;4936872;29;20035;-75
2021/04/11 03:49:17;;;;;;;60.67;27.67;;;;;;;8.50;100.00;100131.00;4924204;28;20085;-75
2021/04/11 03:51:45;;;;;;;58.95;26.85;;;;;;;8.32;100.00;100118.38;4949243;28;20039;-75
2021/04/11 03:54:18;;;;;;;60.08;26.80;;;;;;;8.52;100.00;100123.38;4954271;28;20054;-75
2021/04/11 03:56:55;;;;;;;61.50;27.08;;;;;;;8.43;100.00;100117.47;4936401;28;20550;-75
2021/04/11 03:59:27;;;;;;;60.13;26.17;;;;;;;8.31;100.00;100114.13;4933214;28;20058;-75
2021/04/11 04:01:57;;;;;;;60.83;27.13;;;;;;;8.56;100.00;100107.34;4953499;28;20039;-75
2021/04/11 04:04:29;;;;;;;58.72;26.42;;;;;;;8.35;100.00;100107.72;4936701;28;20027;-75
2021/04/11 04:07:14;;;;;;;61.03;26.45;;;;;;;8.41;100.00;100100.16;4949394;28;20436;-75
2021/04/11 04:09:54;;;;;;;54.42;25.70;;;;;;;8.48;100.00;100100.31;4934506;28;20071;-75
2021/04/11 04:12:28;;;;;;;60.05;26.75;;;;;;;8.37;100.00;100094.72;4941559;28;20041;-75
2021/04/11 04:15:03;;;;;;;59.15;25.75;;;;;;;8.71;100.00;100091.16;4950106;28;20496;-75
2021/04/11 04:17:33;;;;;;;56.88;26.00;;;;;;;8.73;100.00;100085.47;4950060;28;20031;-75
2021/04/11 04:20:02;;;;;;;52.40;24.80;;;;;;;8.60;100.00;100086.72;4938137;28;20042;-75
2021/04/11 04:22:46;;;;;;;54.35;24.88;;;;;;;8.53;100.00;100087.38;4931161;29;20035;-75
2021/04/11 04:25:27;;;;;;;55.15;25.42;;;;;;;8.81;100.00;100097.84;4934814;29;20027;-75
2021/04/11 04:28:38;;;;;;;56.60;25.25;;;;;;;9.05;100.00;100090.25;4953397;29;20045;-74
2021/04/11 04:31:15;;;;;;;56.70;24.67;;;;;;;9.01;100.00;100092.09;4954511;28;20111;-75
2021/04/11 04:34:02;;;;;;;58.78;25.20;;;;;;;9.08;100.00;100092.22;4930568;29;20035;-75
2021/04/11 04:36:51;;;;;;;60.72;26.15;;;;;;;8.94;100.00;100094.66;4948718;28;20047;-75
2021/04/11 04:39:42;;;;;;;60.97;27.40;;;;;;;8.93;100.00;100082.38;4944940;28;20044;-75
2021/04/11 04:42:31;;;;;;;59.15;26.33;;;;;;;9.03;100.00;100089.84;4944992;28;20042;-76
2021/04/11 04:45:05;;;;;;;55.80;26.60;;;;;;;8.92;100.00;100090.78;4948420;28;20459;-75
2021/04/11 04:48:04;;;;;;;55.95;26.38;;;;;;;9.07;100.00;100079.16;4947177;28;20035;-75
2021/04/11 04:50:36;;;;;;;55.35;25.63;;;;;;;9.13;100.00;100085.78;4934628;28;20032;-75
2021/04/11 04:53:33;;;;;;;55.22;25.73;;;;;;;8.87;100.00;100083.78;4917602;29;20023;-75
2021/04/11 04:56:05;;;;;;;55.80;26.75;;;;;;;8.83;100.00;100095.59;4935217;29;20035;-75
2021/04/11 04:58:40;;;;;;;52.58;25.10;;;;;;;8.58;100.00;100086.31;4935867;29;20487;-75
2021/04/11 05:01:17;;;;;;;58.92;27.88;;;;;;;8.82;100.00;100089.47;4928579;29;20117;-75
2021/04/11 05:03:51;;;;;;;61.67;27.50;;;;;;;8.73;100.00;100088.91;4934879;29;20750;-74
2021/04/11 05:06:41;;;;;;;61.65;28.63;;;;;;;8.84;100.00;100097.94;4923852;29;20035;-75
2021/04/11 05:09:27;;;;;;;61.65;27.80;;;;;;;8.95;100.00;100084.69;4935694;29;20404;-75
2021/04/11 05:12:08;;;;;;;59.58;29.48;;;;;;;8.66;100.00;100079.94;4923788;29;20043;-76
2021/04/11 05:14:48;;;;;;;58.95;27.88;;;;;;;8.60;100.00;100076.00;4946036;28;20030;-75
2021/04/11 05:17:25;;;;;;;60.78;28.23;;;;;;;8.50;100.00;100071.19;4941236;28;20483;-75
2021/04/11 05:20:08;;;;;;;64.07;29.23;;;;;;;8.65;100.00;100067.66;4948326;28;20496;-75
2021/04/11 05:22:49;;;;;;;61.53;29.48;;;;;;;8.70;100.00;100067.38;4937990;28;20042;-75
2021/04/11 05:25:58;;;;;;;62.92;29.35;;;;;;;8.88;100.00;100058.47;4934928;29;20036;-75
2021/04/11 05:28:38;;;;;;;63.60;29.88;;;;;;;9.00;100.00;100058.31;4930258;28;20404;-75
2021/04/11 05:31:10;;;;;;;64.22;29.70;;;;;;;8.83;100.00;100058.78;4953055;28;20443;-75
2021/04/11 05:33:37;;;;;;;64.57;30.20;;;;;;;8.81;100.00;100054.91;4954623;28;20035;-75
2021/04/11 05:36:54;;;;;;;65.88;30.65;;;;;;;8.94;100.00;100054.38;4934107;29;20047;-75
2021/04/11 05:39:51;;;;;;;60.92;29.08;;;;;;;9.03;100.00;100046.88;4877857;28;20304;-75
2021/04/11 05:42:39;;;;;;;62.63;30.25;;;;;;;8.88;100.00;100049.66;4949267;28;20028;-75
2021/04/11 05:45:14;;;;;;;62.13;29.23;;;;;;;8.78;100.00;100040.31;4951411;28;20130;-75
2021/04/11 05:47:48;;;;;;;64.55;30.73;;;;;;;9.06;100.00;100035.38;4950080;28;20047;-75
2021/04/11 05:50:20;;;;;;;62.25;30.02;;;;;;;8.90;100.00;100048.16;4932914;29;20161;-75
2021/04/11 05:52:53;;;;;;;67.05;30.58;;;;;;;9.00;100.00;100036.06;4947879;28;20035;-75
2021/04/11 05:55:21;;;;;;;64.80;29.90;;;;;;;9.02;100.00;100037.25;4944567;28;20035;-75
2021/04/11 05:57:53;;;;;;;64.10;30.83;;;;;;;8.92;100.00;100051.25;4951529;28;20046;-75
2021/04/11 06:00:36;;;;;;;62.10;30.52;;;;;;;8.63;100.00;100030.44;4946299;28;20042;-74
2021/04/11 06:03:09;;;;;;;64.05;29.73;;;;;;;8.71;100.00;100034.78;4936908;28;20034;-75
2021/04/11 06:05:51;;;;;;;61.75;30.45;;;;;;;8.76;100.00;100042.56;4913583;29;20094;-74
2021/04/11 06:08:32;;;;;;;63.08;29.83;;;;;;;9.05;100.00;100033.84;4929536;29;20133;-74
2021/04/11 06:11:00;;;;;;;62.35;30.65;;;;;;;8.98;100.00;100038.34;4940635;28;20128;-74
2021/04/11 06:13:39;;;;;;;60.50;29.60;;;;;;;9.01;100.00;100034.94;4921529;29;20047;-75
2021/04/11 06:16:11;;;;;;;60.65;29.60;;;;;;;8.98;100.00;100039.09;4928565;29;20097;-76
2021/04/11 06:18:45;;;;;;;65.22;30.58;;;;;;;9.02;100.00;100045.28;4993284;22;20041;-72
2021/04/11 06:21:21;;;;;;;65.18;31.17;;;;;;;9.14;100.00;100030.16;5004081;28;20207;-73
2021/04/11 06:24:02;;;;;;;60.13;28.85;;;;;;;9.13;100.00;100033.97;4992653;28;20070;-73
2021/04/11 06:26:31;;;;;;;67.40;30.83;;;;;;;8.97;100.00;100018.75;5012876;28;20029;-73
2021/04/11 06:29:05;;;;;;;66.22;32.25;;;;;;;9.01;100.00;100027.66;5004706;28;20045;-72
2021/04/11 06:31:38;;;;;;;68.68;32.38;;;;;;;9.10;100.00;100025.47;4996959;28;20026;-73
2021/04/11 06:34:21;;;;;;;68.70;32.08;;;;;;;9.39;100.00;100031.31;5013970;28;20057;-72
2021/04/11 06:36:52;;;;;;;62.38;30.98;;;;;;;9.16;100.00;100033.22;4989773;28;20040;-73
2021/04/11 06:39:24;;;;;;;64.45;30.52;;;;;;;9.26;100.00;100030.72;5008146;28;20029;-72
2021/04/11 06:42:00;;;;;;;69.80;31.80;;;;;;;9.47;100.00;100032.94;4998970;28;20072;-73
2021/04/11 06:44:54;;;;;;;75.55;32.17;;;;;;;9.64;100.00;100037.81;5013852;28;20104;-72
2021/04/11 06:47:31;;;;;;;74.75;32.58;;;;;;;9.51;100.00;100039.91;4995360;28;20040;-73
2021/04/11 06:50:12;;;;;;;67.85;31.77;;;;;;;9.27;100.00;100039.56;5007868;28;20038;-72
2021/04/11 06:53:11;;;;;;;72.32;32.75;;;;;;;9.15;100.00;100034.38;5011095;28;20041;-73
2021/04/11 06:56:03;;;;;;;69.55;31.58;;;;;;;9.32;100.00;100039.25;5000783;28;20058;-72
2021/04/11 06:58:47;;;;;;;66.85;31.88;;;;;;;9.28;100.00;100033.81;5011715;28;20466;-72
2021/04/11 07:01:40;;;;;;;63.00;30.27;;;;;;;9.04;100.00;100029.59;5009188;28;20036;-72
2021/04/11 07:04:27;;;;;;;68.90;32.75;;;;;;;9.45;100.00;100044.06;5011661;28;20133;-73
2021/04/11 07:07:20;;;;;;;71.35;32.78;;;;;;;9.49;100.00;100036.81;4995296;28;20029;-73
2021/04/11 07:09:58;;;;;;;67.53;31.75;;;;;;;9.40;100.00;100028.25;4983680;28;20040;-73
2021/04/11 07:12:51;;;;;;;71.55;33.60;;;;;;;9.36;100.00;100032.00;5001028;28;20586;-73
2021/04/11 07:15:26;;;;;;;74.97;33.70;;;;;;;9.34;100.00;100034.28;5014564;28;20022;-73
2021/04/11 07:18:00;;;;;;;74.88;33.47;;;;;;;9.45;100.00;100029.84;5005056;28;20026;-73
2021/04/11 07:20:30;;;;;;;75.00;33.17;;;;;;;9.30;100.00;100028.06;5008989;28;20784;-73
2021/04/11 07:23:17;;;;;;;73.70;34.63;;;;;;;9.50;100.00;100033.00;5006033;28;20038;-73
2021/04/11 07:26:12;;;;;;;70.30;32.47;;;;;;;9.21;100.00;100039.09;5008317;28;20033;-73
2021/04/11 07:28:56;;;;;;;71.97;32.92;;;;;;;9.46;100.00;100031.41;5011857;28;20810;-72
2021/04/11 07:31:58;;;;;;;69.82;32.33;;;;;;;9.63;100.00;100030.88;5006215;28;20038;-73
2021/04/11 07:34:27;;;;;;;73.68;33.92;;;;;;;9.68;100.00;100033.22;4996932;28;20705;-73
2021/04/11 07:37:05;;;;;;;80.05;35.08;;;;;;;9.97;100.00;100048.59;5003427;28;20475;-73
2021/04/11 07:39:50;;;;;;;77.80;35.90;;;;;;;9.81;100.00;100029.94;4994756;28;20038;-72
2021/04/11 07:42:38;;;;;;;73.60;34.38;;;;;;;9.64;100.00;100045.88;4996909;28;20025;-72
2021/04/11 07:45:28;;;;;;;67.68;33.13;;;;;;;9.72;100.00;100040.22;4993358;28;20295;-74
2021/04/11 07:48:26;;;;;;;78.17;36.00;;;;;;;9.62;100.00;100034.72;4987666;28;20037;-73
2021/04/11 07:51:03;;;;;;;74.72;34.25;;;;;;;9.87;100.00;100038.50;4982761;28;20433;-73
2021/04/11 07:53:48;;;;;;;79.32;35.58;;;;;;;9.80;100.00;100039.19;5008466;28;20091;-74
2021/04/11 07:56:32;;;;;;;80.75;36.58;;;;;;;9.90;100.00;100043.13;5009218;28;20064;-74
2021/04/11 07:59:16;;;;;;;81.45;35.70;;;;;;;9.88;100.00;100048.88;5008508;28;20061;-73
2021/04/11 08:02:19;;;;;;;75.50;36.00;;;;;;;9.63;100.00;100042.41;5003663;28;20479;-73
2021/04/11 08:05:22;;;;;;;75.53;35.83;;;;;;;9.74;100.00;100042.53;5008113;28;20037;-73
2021/04/11 08:08:14;;;;;;;73.80;35.42;;;;;;;9.75;100.00;100052.16;5012424;28;20081;-74
2021/04/11 08:11:16;;;;;;;84.95;36.72;;;;;;;10.06;100.00;100053.72;4970767;28;20053;-73
2021/04/11 08:13:52;;;;;;;83.38;35.30;;;;;;;10.12;100.00;100065.72;5003541;28;20026;-73
2021/04/11 08:16:46;;;;;;;84.00;38.95;;;;;;;10.12;100.00;100058.44;5008369;28;20091;-73
2021/04/11 08:19:27;;;;;;;85.20;38.30;;;;;;;10.14;100.00;100061.56;5010881;28;20026;-73
2021/04/11 08:22:13;;;;;;;77.32;34.72;;;;;;;10.25;100.00;100062.44;5006779;28;20034;-73
2021/04/11 08:25:33;;;;;;;80.05;36.33;;;;;;;10.25;100.00;100059.75;5000286;28;20071;-73
2021/04/11 08:28:26;;;;;;;75.57;36.22;;;;;;;10.32;100.00;100053.66;4960971;28;20037;-73
2021/04/11 08:31:13;;;;;;;78.30;37.45;;;;;;;10.33;100.00;100058.69;5008688;28;20080;-73
2021/04/11 08:34:03;;;;;;;81.78;38.15;;;;;;;10.40;100.00;100057.97;4997663;28;20035;-72
2021/04/11 08:36:55;;;;;;;81.05;36.75;;;;;;;10.64;100.00;100047.50;5001458;28;20026;-73
2021/04/11 08:39:38;;;;;;;85.35;37.75;;;;;;;10.78;100.00;100046.88;4961202;28;20046;-73
2021/04/11 08:42:23;;;;;;;80.93;37.95;;;;;;;10.90;100.00;100054.66;5005790;28;20042;-73
2021/04/11 08:45:01;;;;;;;76.72;35.75;;;;;;;10.98;100.00;100056.25;4996115;28;20038;-73
2021/04/11 08:48:04;;;;;;;72.47;35.35;;;;;;;10.95;100.00;100051.63;4992058;28;20469;-73
2021/04/11 08:50:41;;;;;;;76.28;36.22;;;;;;;11.26;100.00;100063.81;4986053;28;20026;-73
2021/04/11 08:53:18;;;;;;;72.55;36.80;;;;;;;11.38;100.00;100066.97;5000630;28;20065;-73
2021/04/11 08:55:52;;;;;;;72.50;36.03;;;;;;;11.05;100.00;100069.03;5007353;28;20053;-73
2021/04/11 08:58:32;;;;;;;68.25;33.67;;;;;;;11.22;100.00;100079.19;4992988;28;20049;-73
2021/04/11 09:01:29;;;;;;;69.13;34.83;;;;;;;11.26;100.00;100074.59;4994570;28;20038;-73
2021/04/11 09:04:07;;;;;;;65.88;32.88;;;;;;;11.41;100.00;100057.38;4991766;28;20161;-73
2021/04/11 09:06:42;;;;;;;69.32;34.05;;;;;;;11.25;100.00;100046.88;4995223;28;20057;-73
2021/04/11 09:09:52;;;;;;;64.30;33.20;;;;;;;11.28;100.00;100056.13;4993795;28;20034;-72
2021/04/11 09:12:36;;;;;;;65.93;32.65;;;;;;;11.41;100.00;100068.94;4995932;28;20433;-73
2021/04/11 09:15:12;;;;;;;61.75;30.85;;;;;;;11.30;100.00;100072.69;4995089;28;20030;-73
2021/04/11 09:18:14;;;;;;;65.18;31.38;;;;;;;11.52;100.00;100066.31;4990966;28;20071;-73
2021/04/11 09:20:57;;;;;;;61.70;31.00;;;;;;;11.49;100.00;100081.31;4960751;28;20044;-73
2021/04/11 09:23:33;;;;;;;54.63;28.48;;;;;;;11.30;100.00;100078.88;4993578;28;20149;-73
2021/04/11 09:26:29;;;;;;;55.42;28.20;;;;;;;11.47;100.00;100072.84;4992313;28;20038;-73
2021/04/11 09:29:22;;;;;;;55.45;28.02;;;;;;;11.44;100.00;100078.97;4992573;28;20121;-73
2021/04/11 09:32:03;;;;;;;51.80;27.65;;;;;;;11.57;100.00;100092.94;4997113;28;20030;-73
2021/04/11 09:34:54;;;;;;;53.67;26.30;;;;;;;11.74;100.00;100081.50;4995582;28;20352;-73
2021/04/11 09:37:40;;;;;;;53.45;26.38;;;;;;;11.73;100.00;100080.72;4994984;28;20033;-73
2021/04/11 09:40:19;;;;;;;54.78;25.92;;;;;;;12.17;100.00;100069.81;4994739;28;20575;-73
2021/04/11 09:43:25;;;;;;;46.00;23.45;;;;;;;12.55;100.00;100077.25;4992050;28;20054;-73
2021/04/11 09:46:12;;;;;;;39.35;20.83;;;;;;;12.52;100.00;100094.22;4995961;28;20141;-70
2021/04/11 09:48:58;;;;;;;36.47;19.98;;;;;;;12.74;100.00;100086.19;4991668;28;20042;-70
2021/04/11 09:51:37;;;;;;;36.25;20.63;;;;;;;12.34;100.00;100085.28;4983472;28;20076;-70
2021/04/11 09:54:12;;;;;;;33.45;18.95;;;;;;;12.37;100.00;100089.91;4984573;28;20057;-69
2021/04/11 09:57:01;;;;;;;33.85;17.77;;;;;;;12.21;100.00;100096.81;4987736;28;20121;-69
2021/04/11 09:59:51;;;;;;;26.08;15.77;;;;;;;12.30;100.00;100092.59;4990561;28;20096;-69
2021/04/11 10:02:28;;;;;;;25.40;14.35;;;;;;;12.41;100.00;100092.63;4995473;28;20030;-70
2021/04/11 10:05:13;;;;;;;23.55;14.27;;;;;;;12.56;100.00;100097.69;4986088;28;20505;-70
2021/04/11 10:08:00;;;;;;;24.58;13.32;;;;;;;12.66;100.00;100086.16;4998409;28;20465;-70
2021/04/11 10:10:41;;;;;;;22.30;13.32;;;;;;;12.91;100.00;100097.00;5001711;28;20037;-70
2021/04/11 10:13:12;;;;;;;22.38;12.68;;;;;;;12.64;100.00;100101.19;4994743;28;20034;-70
2021/04/11 10:16:09;;;;;;;24.60;13.43;;;;;;;12.41;100.00;100092.63;4987432;28;20026;-72
2021/04/11 10:18:56;;;;;;;20.63;12.40;;;;;;;12.61;100.00;100104.66;4965393;28;625516;-72
2021/04/11 10:21:37;;;;;;;23.52;13.32;;;;;;;12.49;100.00;100097.69;4987246;28;20053;-72
2021/04/11 10:24:15;;;;;;;20.10;11.27;;;;;;;12.71;100.00;100103.94;4989549;28;20092;-72
2021/04/11 10:26:58;;;;;;;19.90;11.63;;;;;;;12.64;100.00;100110.06;4986072;28;21183;-72
2021/04/11 10:29:27;;;;;;;20.90;12.13;;;;;;;12.66;100.00;100110.47;4998343;28;20460;-72
2021/04/11 10:32:16;;;;;;;19.10;11.73;;;;;;;12.61;100.00;100101.97;5001840;28;20045;-73
2021/04/11 10:34:55;;;;;;;15.88;10.13;;;;;;;12.42;100.00;100113.09;4998632;28;20030;-72
2021/04/11 10:37:23;;;;;;;15.10;9.43;;;;;;;12.36;100.00;100120.78;5000147;28;20505;-72
2021/04/11 10:40:14;;;;;;;14.73;9.35;;;;;;;12.18;100.00;100111.81;4994878;28;20034;-72
2021/04/11 10:42:58;;;;;;;15.23;8.90;;;;;;;12.20;100.00;100116.84;4988573;28;20035;-72
2021/04/11 10:45:37;;;;;;;16.60;10.18;;;;;;;12.36;100.00;100112.69;4993088;28;20052;-72
2021/04/11 10:48:22;;;;;;;19.15;11.07;;;;;;;12.31;100.00;100123.09;4982669;28;20035;-72
2021/04/11 10:51:22;;;;;;;18.42;11.98;;;;;;;12.39;100.00;100135.44;4999376;28;20053;-72
2021/04/11 10:53:47;;;;;;;22.38;13.77;;;;;;;12.76;100.00;100130.56;5000432;28;20946;-72
2021/04/11 10:56:31;;;;;;;19.90;12.90;;;;;;;12.75;100.00;100131.72;4969715;28;20038;-72
2021/04/11 10:59:18;;;;;;;21.88;14.18;;;;;;;12.81;100.00;100132.91;5001809;28;20431;-73
2021/04/11 11:02:22;;;;;;;24.02;14.10;;;;;;;12.98;100.00;100142.19;4998425;28;20038;-70
2021/04/11 11:05:18;;;;;;;23.42;14.55;;;;;;;12.94;100.00;100141.41;4989554;28;20525;-70
2021/04/11 11:08:04;;;;;;;21.08;12.50;;;;;;;13.21;100.00;100148.84;4998110;28;20076;-71
2021/04/11 11:10:51;;;;;;;20.27;12.55;;;;;;;13.37;100.00;100151.97;4949834;28;20053;-70
2021/04/11 11:13:25;;;;;;;18.92;11.82;;;;;;;13.50;100.00;100145.00;4982800;28;20041;-73
2021/04/11 11:16:09;;;;;;;13.48;9.35;;;;;;;13.36;98.21;100169.34;4998906;28;20427;-70
2021/04/11 11:18:53;;;;;;;14.80;10.43;;;;;;;13.17;98.90;100166.22;5004046;28;20553;-71
2021/04/11 11:21:27;;;;;;;13.90;9.82;;;;;;;13.27;98.85;100168.16;5002176;28;20122;-71
2021/04/11 11:24:14;;;;;;;13.27;9.07;;;;;;;13.30;99.40;100172.78;5002460;28;20062;-71
2021/04/11 11:26:46;;;;;;;15.35;10.55;;;;;;;13.45;97.52;100174.38;4999949;28;20188;-70
2021/04/11 11:29:51;;;;;;;21.77;13.45;;;;;;;13.15;95.87;100187.44;5000321;28;20029;-70
2021/04/11 11:32:25;;;;;;;21.27;13.55;;;;;;;12.92;95.62;100195.09;5001130;28;20041;-70
2021/04/11 11:34:58;;;;;;;26.30;15.30;;;;;;;12.51;96.92;100210.75;5000541;28;20112;-70
2021/04/11 11:37:51;;;;;;;26.02;15.75;;;;;;;11.94;99.67;100198.84;4999086;28;20047;-70
2021/04/11 11:40:23;;;;;;;28.92;15.63;;;;;;;12.15;100.00;100198.97;5007688;28;20418;-70
2021/04/11 11:43:12;;;;;;;25.83;15.30;;;;;;;12.47;99.12;100199.91;5002655;28;20033;-70
2021/04/11 11:45:48;;;;;;;27.27;15.40;;;;;;;12.45;97.32;100207.63;4999760;28;20087;-70
2021/04/11 11:48:22;;;;;;;23.55;14.43;;;;;;;12.24;96.31;100215.59;4980830;28;20069;-72
2021/04/11 11:50:56;;;;;;;22.98;13.27;;;;;;;12.00;95.97;100218.91;5001430;28;20030;-71
2021/04/11 11:53:28;;;;;;;20.17;12.40;;;;;;;11.61;97.19;100225.88;4997827;28;20038;-71
2021/04/11 11:56:26;;;;;;;20.17;12.02;;;;;;;11.70;96.70;100221.75;5003254;28;20053;-71
2021/04/11 11:59:03;;;;;;;19.35;11.80;;;;;;;11.84;95.32;100240.00;4996799;28;20049;-71